createdAt,value
2022-07-26T00:00:14.478Z,4.20
2022-07-26T00:02:47.784Z,3.95
2022-07-26T00:05:17.309Z,4.15
2022-07-26T00:07:45.476Z,4.25
2022-07-26T00:10:13.590Z,4.50
2022-07-26T00:12:40.782Z,4.25
2022-07-26T00:15:10.757Z,4.95
2022-07-26T00:17:38.686Z,5.00
2022-07-26T00:20:06.436Z,4.68
2022-07-26T00:22:36.272Z,4.47
2022-07-26T00:25:09.569Z,4.90
2022-07-26T00:27:37.534Z,5.25
2022-07-26T00:30:07.769Z,5.07
2022-07-26T00:32:35.134Z,4.45
2022-07-26T00:35:02.384Z,4.80
2022-07-26T00:37:29.472Z,4.82
2022-07-26T00:39:56.747Z,4.68
2022-07-26T00:42:24.155Z,4.28
2022-07-26T00:44:51.962Z,4.20
2022-07-26T00:47:19.418Z,5.53
2022-07-26T00:49:46.657Z,5.13
2022-07-26T00:52:14.526Z,5.18
2022-07-26T00:54:45.760Z,4.78
2022-07-26T00:57:16.358Z,5.30
2022-07-26T00:59:43.587Z,5.35
2022-07-26T01:02:11.004Z,5.43
2022-07-26T01:04:38.516Z,5.32
2022-07-26T01:07:14.684Z,4.85
2022-07-26T01:09:44.025Z,4.45
2022-07-26T01:12:11.277Z,5.05
2022-07-26T01:14:38.352Z,4.75
2022-07-26T01:17:05.718Z,5.47
2022-07-26T01:19:33.059Z,4.82
2022-07-26T01:22:00.339Z,5.10
2022-07-26T01:24:28.383Z,4.85
2022-07-26T01:26:56.966Z,5.70
2022-07-26T01:29:34.686Z,5.78
2022-07-26T01:32:05.190Z,4.93
2022-07-26T01:34:32.754Z,6.05
2022-07-26T01:37:00.378Z,6.18
2022-07-26T01:39:27.540Z,5.43
2022-07-26T01:41:56.984Z,5.18
2022-07-26T01:44:24.382Z,5.45
2022-07-26T01:46:51.602Z,5.85
2022-07-26T01:49:18.845Z,5.90
2022-07-26T01:51:45.975Z,6.22
2022-07-26T01:54:13.342Z,4.95
2022-07-26T01:56:40.528Z,6.03
2022-07-26T01:59:07.877Z,6.18
2022-07-26T02:01:39.637Z,6.20
2022-07-26T02:04:08.534Z,5.50
2022-07-26T02:06:37.333Z,5.50
2022-07-26T02:09:07.485Z,5.88
2022-07-26T02:11:34.883Z,5.45
2022-07-26T02:14:03.425Z,5.70
2022-07-26T02:16:30.479Z,6.15
2022-07-26T02:18:57.971Z,6.40
2022-07-26T02:21:25.095Z,6.97
2022-07-26T02:23:52.196Z,5.88
2022-07-26T02:26:19.279Z,5.40
2022-07-26T02:28:46.944Z,6.28
2022-07-26T02:31:15.454Z,5.97
2022-07-26T02:33:43.139Z,6.22
2022-07-26T02:36:10.386Z,5.68
2022-07-26T02:38:37.680Z,5.05
2022-07-26T02:41:06.454Z,6.22
2022-07-26T02:43:33.774Z,5.47
2022-07-26T02:46:01.664Z,6.10
2022-07-26T02:48:31.904Z,5.32
2022-07-26T02:50:59.290Z,5.57
2022-07-26T02:53:26.455Z,5.30
2022-07-26T02:55:53.483Z,5.45
2022-07-26T02:58:21.866Z,5.05
2022-07-26T03:00:49.211Z,5.85
2022-07-26T03:03:16.506Z,5.72
2022-07-26T03:05:43.669Z,5.30
2022-07-26T03:08:10.866Z,5.22
2022-07-26T03:10:39.055Z,4.68
2022-07-26T03:13:06.291Z,5.65
2022-07-26T03:15:33.381Z,4.85
2022-07-26T03:18:00.495Z,4.30
2022-07-26T03:20:27.854Z,4.82
2022-07-26T03:22:54.938Z,4.25
2022-07-26T03:25:22.040Z,3.78
2022-07-26T03:27:49.265Z,4.80
2022-07-26T03:30:16.576Z,4.10
2022-07-26T03:32:52.265Z,3.83
2022-07-26T03:35:19.320Z,3.42
2022-07-26T03:37:46.757Z,3.08
2022-07-26T03:40:16.159Z,3.72
2022-07-26T03:42:44.223Z,2.42
2022-07-26T03:45:13.116Z,2.50
2022-07-26T03:47:40.297Z,2.38
2022-07-26T03:50:08.578Z,2.33
2022-07-26T03:52:36.057Z,2.13
2022-07-26T03:55:23.275Z,2.15
2022-07-26T03:57:50.396Z,2.28
2022-07-26T04:00:17.753Z,1.90
2022-07-26T04:02:45.294Z,2.03
2022-07-26T04:05:12.708Z,1.90
2022-07-26T04:07:52.823Z,2.17
2022-07-26T04:10:22.049Z,2.10
2022-07-26T04:12:49.999Z,1.70
2022-07-26T04:15:19.226Z,1.60
2022-07-26T04:17:48.558Z,2.03
2022-07-26T04:20:16.941Z,1.38
2022-07-26T04:22:45.191Z,1.73
2022-07-26T04:25:12.583Z,2.00
2022-07-26T04:27:39.798Z,1.85
2022-07-26T04:30:13.975Z,1.30
2022-07-26T04:32:42.329Z,1.80
2022-07-26T04:35:10.005Z,1.67
2022-07-26T04:37:41.633Z,1.80
2022-07-26T04:40:10.518Z,1.35
2022-07-26T04:42:39.312Z,1.50
2022-07-26T04:45:08.524Z,1.60
2022-07-26T04:47:36.662Z,1.67
2022-07-26T04:50:04.929Z,1.35
2022-07-26T04:52:32.677Z,1.15
2022-07-26T04:55:01.067Z,1.25
2022-07-26T04:57:28.381Z,1.20
2022-07-26T05:00:16.748Z,1.20
2022-07-26T05:02:43.057Z,1.67
2022-07-26T05:05:10.215Z,1.10
2022-07-26T05:07:49.161Z,1.23
2022-07-26T05:10:17.935Z,1.00
2022-07-26T05:12:46.814Z,1.75
2022-07-26T05:15:14.616Z,1.30
2022-07-26T05:17:43.284Z,1.17
2022-07-26T05:20:12.512Z,1.10
2022-07-26T05:22:40.519Z,1.30
2022-07-26T05:25:08.995Z,0.95
2022-07-26T05:27:36.458Z,1.10
2022-07-26T05:30:04.124Z,1.20
2022-07-26T05:32:31.423Z,0.93
2022-07-26T05:34:58.696Z,1.10
2022-07-26T05:37:26.164Z,0.80
2022-07-26T05:39:53.393Z,2.25
2022-07-26T05:42:20.716Z,0.80
2022-07-26T05:44:47.833Z,1.60
2022-07-26T05:47:15.369Z,1.05
2022-07-26T05:49:42.450Z,1.40
2022-07-26T05:52:09.800Z,1.10
2022-07-26T05:54:36.944Z,1.13
2022-07-26T05:57:04.830Z,0.90
2022-07-26T05:59:32.712Z,0.77
2022-07-26T06:01:59.807Z,0.95
2022-07-26T06:04:28.971Z,1.13
2022-07-26T06:06:56.158Z,1.17
2022-07-26T06:09:27.191Z,1.27
2022-07-26T06:11:54.636Z,0.90
2022-07-26T06:14:22.340Z,0.70
2022-07-26T06:16:50.129Z,1.17
2022-07-26T06:19:17.318Z,1.10
2022-07-26T06:21:46.254Z,0.90
2022-07-26T06:24:13.924Z,0.88
2022-07-26T06:26:41.141Z,1.27
2022-07-26T06:29:08.501Z,1.00
2022-07-26T06:31:35.601Z,1.00
2022-07-26T06:34:02.800Z,0.77
2022-07-26T06:36:31.135Z,0.95
2022-07-26T06:38:58.673Z,1.00
2022-07-26T06:41:26.043Z,1.10
2022-07-26T06:43:53.637Z,1.10
2022-07-26T06:46:21.439Z,0.80
2022-07-26T06:48:52.701Z,0.90
2022-07-26T06:51:20.294Z,0.98
2022-07-26T06:53:47.386Z,1.10
2022-07-26T06:56:15.204Z,1.30
2022-07-26T06:58:43.175Z,0.95
2022-07-26T07:01:10.385Z,0.95
2022-07-26T07:03:37.585Z,0.85
2022-07-26T07:06:04.751Z,0.77
2022-07-26T07:08:31.910Z,0.98
2022-07-26T07:10:59.116Z,1.00
2022-07-26T07:13:26.441Z,1.05
2022-07-26T07:15:53.771Z,1.75
2022-07-26T07:18:21.572Z,1.10
2022-07-26T07:20:48.694Z,1.10
2022-07-26T07:23:15.779Z,1.10
2022-07-26T07:25:44.608Z,1.33
2022-07-26T07:28:12.271Z,0.93
2022-07-26T07:30:39.382Z,1.30
2022-07-26T07:33:09.522Z,0.98
2022-07-26T07:35:50.514Z,1.13
2022-07-26T07:38:17.822Z,0.90
2022-07-26T07:40:44.919Z,0.95
2022-07-26T07:43:12.028Z,0.80
2022-07-26T07:45:39.195Z,0.90
2022-07-26T07:48:06.595Z,0.90
2022-07-26T07:50:33.762Z,0.90
2022-07-26T07:53:02.187Z,0.98
2022-07-26T07:55:40.398Z,0.73
2022-07-26T07:58:08.823Z,1.00
2022-07-26T08:00:35.939Z,0.90
2022-07-26T08:03:04.469Z,1.15
2022-07-26T08:05:31.657Z,0.68
2022-07-26T08:07:59.226Z,0.60
2022-07-26T08:10:27.065Z,1.00
2022-07-26T08:12:54.185Z,0.90
2022-07-26T08:15:23.552Z,1.15
2022-07-26T08:17:53.777Z,1.00
2022-07-26T08:20:23.506Z,1.00
2022-07-26T08:22:52.367Z,0.88
2022-07-26T08:25:20.161Z,1.20
2022-07-26T08:28:02.590Z,1.00
2022-07-26T08:30:31.236Z,0.90
2022-07-26T08:32:58.893Z,1.23
2022-07-26T08:35:26.376Z,0.75
2022-07-26T08:37:53.461Z,0.75
2022-07-26T08:40:21.078Z,0.77
2022-07-26T08:42:56.155Z,0.80
2022-07-26T08:45:29.753Z,1.10
2022-07-26T08:48:16.746Z,1.00
2022-07-26T08:50:44.935Z,0.80
2022-07-26T08:53:13.338Z,0.80
2022-07-26T08:58:27.803Z,1.45
2022-07-26T09:01:06.151Z,0.90
2022-07-26T09:03:38.085Z,1.25
2022-07-26T09:06:15.416Z,0.80
2022-07-26T09:08:43.791Z,0.90
2022-07-26T09:11:32.783Z,1.02
2022-07-26T09:14:06.699Z,0.75
2022-07-26T09:16:38.842Z,1.42
2022-07-26T09:19:23.796Z,1.00
2022-07-26T09:21:51.970Z,1.13
2022-07-26T09:24:47.720Z,0.85
2022-07-26T09:27:17.921Z,0.93
2022-07-26T09:29:50.589Z,1.08
2022-07-26T09:32:18.914Z,1.00
2022-07-26T09:34:58.735Z,0.88
2022-07-26T09:37:36.900Z,0.65
2022-07-26T09:40:08.289Z,1.00
2022-07-26T09:45:03.973Z,1.15
2022-07-26T09:47:39.598Z,1.10
2022-07-26T09:50:31.309Z,0.85
2022-07-26T09:53:12.926Z,1.08
2022-07-26T09:58:14.635Z,1.10
2022-07-26T10:00:42.587Z,1.15
2022-07-26T10:03:10.133Z,0.90
2022-07-26T10:05:38.069Z,0.98
2022-07-26T10:08:05.935Z,1.17
2022-07-26T10:10:38.002Z,0.90
2022-07-26T10:13:07.207Z,1.38
2022-07-26T10:15:41.294Z,1.10
2022-07-26T10:18:16.663Z,1.25
2022-07-26T10:20:50.991Z,1.13
2022-07-26T10:23:39.108Z,1.02
2022-07-26T10:26:09.863Z,1.30
2022-07-26T10:28:38.884Z,1.40
2022-07-26T10:31:21.501Z,1.70
2022-07-26T10:33:50.602Z,1.20
2022-07-26T10:36:30.076Z,1.27
2022-07-26T10:39:07.853Z,1.10
2022-07-26T10:41:39.594Z,1.10
2022-07-26T10:44:16.463Z,0.98
2022-07-26T10:46:58.101Z,1.40
2022-07-26T10:49:36.403Z,0.95
2022-07-26T10:52:12.707Z,1.77
2022-07-26T10:54:58.248Z,1.33
2022-07-26T10:57:28.009Z,1.40
2022-07-26T10:59:59.478Z,1.33
2022-07-26T11:05:12.812Z,1.08
2022-07-26T11:08:10.995Z,1.55
2022-07-26T11:10:41.878Z,1.00
2022-07-26T11:13:16.617Z,1.10
2022-07-26T11:15:49.339Z,1.10
2022-07-26T11:18:25.240Z,1.20
2022-07-26T11:20:57.500Z,0.77
2022-07-26T11:23:27.562Z,0.95
2022-07-26T11:26:27.190Z,1.00
2022-07-26T11:29:06.138Z,1.02
2022-07-26T11:31:51.155Z,1.25
2022-07-26T11:34:29.460Z,0.80
2022-07-26T11:36:58.505Z,1.13
2022-07-26T11:39:31.356Z,1.02
2022-07-26T11:42:06.719Z,1.23
2022-07-26T11:44:34.458Z,0.73
2022-07-26T11:47:19.137Z,1.02
2022-07-26T11:49:51.845Z,0.70
2022-07-26T11:52:34.052Z,0.90
2022-07-26T11:55:01.240Z,1.17
2022-07-26T11:57:30.539Z,1.30
2022-07-26T11:59:59.782Z,0.68
2022-07-26T12:02:28.148Z,1.02
2022-07-26T12:05:18.848Z,1.20
2022-07-26T12:08:00.856Z,0.73
2022-07-26T12:13:15.987Z,0.90
2022-07-26T12:15:52.251Z,0.73
2022-07-26T12:18:30.949Z,1.17
2022-07-26T12:21:06.708Z,1.00
2022-07-26T12:23:48.823Z,1.35
2022-07-26T12:26:27.449Z,1.00
2022-07-26T12:28:55.839Z,1.25
2022-07-26T12:31:31.326Z,0.93
2022-07-26T12:33:59.082Z,1.50
2022-07-26T12:36:27.687Z,1.10
2022-07-26T12:38:57.945Z,1.02
2022-07-26T12:41:36.198Z,1.48
2022-07-26T12:44:05.203Z,1.00
2022-07-26T12:46:34.705Z,0.90
2022-07-26T12:49:02.163Z,1.30
2022-07-26T12:51:29.333Z,1.10
2022-07-26T12:53:56.438Z,0.77
2022-07-26T12:56:23.625Z,1.10
2022-07-26T12:58:50.687Z,1.20
2022-07-26T13:01:17.797Z,0.90
2022-07-26T13:03:45.053Z,1.00
2022-07-26T13:06:12.934Z,1.40
2022-07-26T13:08:40.692Z,1.02
2022-07-26T13:11:07.801Z,1.20
2022-07-26T13:13:35.010Z,1.30
2022-07-26T13:16:02.091Z,1.00
2022-07-26T13:18:29.401Z,0.80
2022-07-26T13:20:57.227Z,1.42
2022-07-26T13:23:24.327Z,1.13
2022-07-26T13:25:54.047Z,0.80
2022-07-26T13:28:21.749Z,1.00
2022-07-26T13:30:48.898Z,0.90
2022-07-26T13:33:16.887Z,1.15
2022-07-26T13:35:43.936Z,1.00
2022-07-26T13:38:11.237Z,1.15
2022-07-26T13:40:38.714Z,1.33
2022-07-26T13:43:05.780Z,1.30
2022-07-26T13:45:32.841Z,1.00
2022-07-26T13:48:00.196Z,0.90
2022-07-26T13:50:28.512Z,1.25
2022-07-26T13:52:58.847Z,0.82
2022-07-26T13:55:26.020Z,1.17
2022-07-26T13:57:56.582Z,1.17
2022-07-26T14:00:26.420Z,0.98
2022-07-26T14:02:54.532Z,1.13
2022-07-26T14:05:21.744Z,1.23
2022-07-26T14:07:49.019Z,0.93
2022-07-26T14:10:16.378Z,1.60
2022-07-26T14:12:43.649Z,1.05
2022-07-26T14:15:15.120Z,1.05
2022-07-26T14:17:47.416Z,1.63
2022-07-26T14:20:17.352Z,0.95
2022-07-26T14:22:45.031Z,1.15
2022-07-26T14:25:12.497Z,1.05
2022-07-26T14:27:39.728Z,1.02
2022-07-26T14:30:07.709Z,1.00
2022-07-26T14:32:34.849Z,1.27
2022-07-26T14:35:02.124Z,1.20
2022-07-26T14:37:43.504Z,1.30
2022-07-26T14:40:17.101Z,1.40
2022-07-26T14:42:45.771Z,1.20
2022-07-26T14:45:13.662Z,1.58
2022-07-26T14:47:41.329Z,1.20
2022-07-26T14:50:10.297Z,1.58
2022-07-26T14:52:46.585Z,1.40
2022-07-26T14:55:14.797Z,1.20
2022-07-26T14:57:42.309Z,1.20
2022-07-26T15:00:15.942Z,1.33
2022-07-26T15:02:46.010Z,1.48
2022-07-26T15:05:14.367Z,1.42
2022-07-26T15:07:42.222Z,1.77
2022-07-26T15:10:12.115Z,1.33
2022-07-26T15:12:40.066Z,1.77
2022-07-26T15:15:08.826Z,1.77
2022-07-26T15:17:36.442Z,1.30
2022-07-26T15:20:05.277Z,1.38
2022-07-26T15:22:32.422Z,1.67
2022-07-26T15:24:59.479Z,1.38
2022-07-26T15:27:26.653Z,1.10
2022-07-26T15:29:56.193Z,1.38
2022-07-26T15:32:25.484Z,1.92
2022-07-26T15:34:52.594Z,1.33
2022-07-26T15:37:19.946Z,1.73
2022-07-26T15:39:47.028Z,1.20
2022-07-26T15:42:16.032Z,1.30
2022-07-26T15:44:43.259Z,1.70
2022-07-26T15:47:10.913Z,1.30
2022-07-26T15:49:40.600Z,1.30
2022-07-26T15:52:11.636Z,1.60
2022-07-26T15:54:40.893Z,1.40
2022-07-26T15:57:08.240Z,1.83
2022-07-26T15:59:35.744Z,1.70
2022-07-26T16:02:05.639Z,1.48
2022-07-26T16:04:32.742Z,1.35
2022-07-26T16:06:59.892Z,1.05
2022-07-26T16:09:27.007Z,1.45
2022-07-26T16:11:54.238Z,1.20
2022-07-26T16:14:21.453Z,1.25
2022-07-26T16:16:48.598Z,1.13
2022-07-26T16:19:16.043Z,1.75
2022-07-26T16:21:43.819Z,1.40
2022-07-26T16:24:10.935Z,1.33
2022-07-26T16:26:38.062Z,1.45
2022-07-26T16:29:06.126Z,1.70
2022-07-26T16:31:33.505Z,1.65
2022-07-26T16:34:01.065Z,1.45
2022-07-26T16:36:28.739Z,1.85
2022-07-26T16:38:55.786Z,1.20
2022-07-26T16:41:22.869Z,1.40
2022-07-26T16:43:50.082Z,1.20
2022-07-26T16:46:17.644Z,1.60
2022-07-26T16:48:45.153Z,1.83
2022-07-26T16:51:13.855Z,1.40
2022-07-26T16:53:41.467Z,1.80
2022-07-26T16:56:09.075Z,2.10
2022-07-26T16:58:37.696Z,1.10
2022-07-26T17:01:04.855Z,1.70
2022-07-26T17:03:32.053Z,1.92
2022-07-26T17:06:04.292Z,1.30
2022-07-26T17:08:33.605Z,1.40
2022-07-26T17:11:01.007Z,1.25
2022-07-26T17:13:28.093Z,1.92
2022-07-26T17:15:55.198Z,2.00
2022-07-26T17:18:22.541Z,1.35
2022-07-26T17:20:49.766Z,2.13
2022-07-26T17:23:18.725Z,1.52
2022-07-26T17:25:46.623Z,1.45
2022-07-26T17:28:14.132Z,2.17
2022-07-26T17:30:41.260Z,2.33
2022-07-26T17:33:08.547Z,1.83
2022-07-26T17:35:35.657Z,1.92
2022-07-26T17:38:02.723Z,1.90
2022-07-26T17:40:31.871Z,1.58
2022-07-26T17:42:59.562Z,1.58
2022-07-26T17:45:26.649Z,2.33
2022-07-26T17:47:53.939Z,1.40
2022-07-26T17:50:37.788Z,1.40
2022-07-26T17:53:06.069Z,1.50
2022-07-26T17:55:33.187Z,1.65
2022-07-26T17:58:00.249Z,1.65
2022-07-26T18:00:28.856Z,1.38
2022-07-26T18:02:56.966Z,1.73
2022-07-26T18:05:30.124Z,1.48
2022-07-26T18:07:59.997Z,1.70
2022-07-26T18:10:28.327Z,1.45
2022-07-26T18:12:55.969Z,1.42
2022-07-26T18:15:23.126Z,1.40
2022-07-26T18:17:50.216Z,1.30
2022-07-26T18:20:17.325Z,1.15
2022-07-26T18:22:45.864Z,1.33
2022-07-26T18:25:17.478Z,1.05
2022-07-26T18:27:44.522Z,2.00
2022-07-26T18:30:11.810Z,1.83
2022-07-26T18:32:38.891Z,1.40
2022-07-26T18:35:06.603Z,1.77
2022-07-26T18:37:33.931Z,1.33
2022-07-26T18:40:01.140Z,1.92
2022-07-26T18:42:28.464Z,1.65
2022-07-26T18:44:55.811Z,1.60
2022-07-26T18:47:22.934Z,1.58
2022-07-26T18:49:50.393Z,1.58
2022-07-26T18:52:31.841Z,1.75
2022-07-26T18:55:06.923Z,1.50
2022-07-26T18:57:35.638Z,1.70
2022-07-26T19:00:10.478Z,2.25
2022-07-26T19:02:37.666Z,1.88
2022-07-26T19:05:05.958Z,1.58
2022-07-26T19:07:33.128Z,1.48
2022-07-26T19:10:00.355Z,1.55
2022-07-26T19:12:28.541Z,1.35
2022-07-26T19:14:56.096Z,1.75
2022-07-26T19:17:23.414Z,1.67
2022-07-26T19:19:50.568Z,2.42
2022-07-26T19:22:17.683Z,1.48
2022-07-26T19:24:44.879Z,1.75
2022-07-26T19:27:12.324Z,1.90
2022-07-26T19:29:40.949Z,1.83
2022-07-26T19:32:08.473Z,1.63
2022-07-26T19:34:35.782Z,2.00
2022-07-26T19:37:03.529Z,2.33
2022-07-26T19:39:30.828Z,1.40
2022-07-26T19:41:58.145Z,1.65
2022-07-26T19:44:25.321Z,1.77
2022-07-26T19:46:57.301Z,1.65
2022-07-26T19:49:25.088Z,1.70
2022-07-26T19:51:52.418Z,2.00
2022-07-26T19:54:19.588Z,1.67
2022-07-26T19:56:46.698Z,2.00
2022-07-26T19:59:18.019Z,2.20
2022-07-26T20:01:50.062Z,1.80
2022-07-26T20:04:17.444Z,1.70
2022-07-26T20:06:44.495Z,2.00
2022-07-26T20:09:11.844Z,1.50
2022-07-26T20:11:39.185Z,1.65
2022-07-26T20:14:06.258Z,1.77
2022-07-26T20:16:33.438Z,2.17
2022-07-26T20:19:01.023Z,2.25
2022-07-26T20:21:28.101Z,1.80
2022-07-26T20:23:55.199Z,1.58
2022-07-26T20:26:23.197Z,1.95
2022-07-26T20:28:51.110Z,1.70
2022-07-26T20:31:18.213Z,1.70
2022-07-26T20:33:45.372Z,2.08
2022-07-26T20:36:12.480Z,2.40
2022-07-26T20:38:39.681Z,1.75
2022-07-26T20:41:07.034Z,1.70
2022-07-26T20:43:34.615Z,1.65
2022-07-26T20:46:02.246Z,1.60
2022-07-26T20:48:29.678Z,1.98
2022-07-26T20:50:56.741Z,1.77
2022-07-26T20:53:23.788Z,1.98
2022-07-26T20:55:50.976Z,2.13
2022-07-26T20:58:18.277Z,1.70
2022-07-26T21:00:45.337Z,1.80
2022-07-26T21:03:13.964Z,1.45
2022-07-26T21:05:41.082Z,2.45
2022-07-26T21:08:08.173Z,2.03
2022-07-26T21:10:35.401Z,1.80
2022-07-26T21:13:02.712Z,1.80
2022-07-26T21:15:30.415Z,1.60
2022-07-26T21:17:58.323Z,1.85
2022-07-26T21:20:25.686Z,2.25
2022-07-26T21:22:52.761Z,2.47
2022-07-26T21:25:20.036Z,1.77
2022-07-26T21:27:47.138Z,1.80
2022-07-26T21:30:14.353Z,1.92
2022-07-26T21:32:41.449Z,1.77
2022-07-26T21:35:08.644Z,2.05
2022-07-26T21:37:35.691Z,2.25
2022-07-26T21:40:03.177Z,2.15
2022-07-26T21:42:30.245Z,1.85
2022-07-26T21:44:57.265Z,1.88
2022-07-26T21:47:24.376Z,2.05
2022-07-26T21:49:51.405Z,2.05
2022-07-26T21:52:18.471Z,1.80
2022-07-26T21:54:45.853Z,1.70
2022-07-26T21:57:12.945Z,1.95
2022-07-26T21:59:40.036Z,2.13
2022-07-26T22:02:07.718Z,2.03
2022-07-26T22:04:35.438Z,1.80
2022-07-26T22:07:02.774Z,1.83
2022-07-26T22:09:33.886Z,2.33
2022-07-26T22:12:01.283Z,1.92
2022-07-26T22:14:28.562Z,2.10
2022-07-26T22:16:55.965Z,1.92
2022-07-26T22:19:23.052Z,2.35
2022-07-26T22:21:50.180Z,2.10
2022-07-26T22:24:17.271Z,1.88
2022-07-26T22:26:44.449Z,2.28
2022-07-26T22:29:11.835Z,2.10
2022-07-26T22:31:39.322Z,1.80
2022-07-26T22:34:06.441Z,1.73
2022-07-26T22:36:33.585Z,2.30
2022-07-26T22:39:07.299Z,1.83
2022-07-26T22:41:57.486Z,1.95
2022-07-26T22:44:23.360Z,1.80
2022-07-26T22:46:50.409Z,1.75
2022-07-26T22:49:17.719Z,1.77
2022-07-26T22:51:45.008Z,1.80
2022-07-26T22:54:12.278Z,2.08
2022-07-26T22:56:39.433Z,1.63
2022-07-26T22:59:06.572Z,1.65
2022-07-26T23:01:33.899Z,2.03
2022-07-26T23:04:01.063Z,2.00
2022-07-26T23:06:32.523Z,1.58
2022-07-26T23:08:59.745Z,1.92
2022-07-26T23:11:26.823Z,1.38
2022-07-26T23:13:58.921Z,1.95
2022-07-26T23:16:26.748Z,1.65
2022-07-26T23:18:54.011Z,1.27
2022-07-26T23:21:21.335Z,1.92
2022-07-26T23:23:48.497Z,2.03
2022-07-26T23:26:15.648Z,2.45
2022-07-26T23:28:42.819Z,1.95
2022-07-26T23:31:11.731Z,1.40
2022-07-26T23:33:51.415Z,1.60
2022-07-26T23:36:28.635Z,1.60
2022-07-26T23:38:57.381Z,1.90
2022-07-26T23:41:25.143Z,1.60
2022-07-26T23:43:53.001Z,1.75
2022-07-26T23:46:20.562Z,1.52
2022-07-26T23:48:47.983Z,1.60
2022-07-26T23:51:15.301Z,1.50
2022-07-26T23:53:42.754Z,1.90
2022-07-26T23:56:09.990Z,1.55
2022-07-26T23:58:37.740Z,1.27
